HOURLY OBS INDEX

015

Northern Plateau--Barkly/Alice Spgs

ALICE SPRINGS AIRPORT

Site: 015590
Alt: 546.0m
11km SSE of ALICE SPRINGS


  Time     Wind        Temp  DP   Baro     Rain since   Rain past  Vis(m), Cloud(base in m), Weather
  local        km/h                         9am  last   hr   10m    
Wed 15:30  ESE 20/ 28  17.3  0.5  1020.7    0.0   0.0   0.0   0.0   10000 
Wed 16:00  SSE 20/ 33  17.2 -0.1  1020.6    0.0   0.0   0.0   0.0   10000 
Wed 16:30  SSE 22/ 30  17.0  0.2  1020.6    0.0   0.0   0.0   0.0   10000 
Wed 17:00  SSE 19/ 30  16.9 -0.3  1020.9    0.0   0.0   0.0   0.0   10000 
Wed 17:30  SSE 19/ 24  16.7 -0.5  1021.1    0.0   0.0   0.0   0.0   10000 
Wed 18:00   SE 17/ 24  16.4 -0.8  1020.9    0.0   0.0   0.0   0.0   10000 
Wed 18:30  ESE 17/ 24  16.1 -0.6  1020.8    0.0   0.0   0.0   0.0   10000 
Wed 19:00   SE 11/ 15  15.6 -1.0  1021.9    0.0   0.0   0.0   0.0   10000 
Wed 19:30  ESE 11/ 13  15.2 -0.9  1022.3    0.0   0.0   0.0   0.0   10000 
Wed 20:00  ESE 11/ 13  15.2 -0.9  1022.6    0.0   0.0   0.0   0.0   10000 
Wed 20:30   SE  9/ 13  14.8 -1.3  1023.0    0.0   0.0   0.0   0.0   10000 

JERVOIS

Site: 015602
Alt: 328.0m
247km ENE of ALICE SPRINGS


  Time     Wind        Temp  DP   Baro     Rain since   Rain past  Vis(m), Cloud(base in m), Weather
  local        km/h                         9am  last   hr   10m    
Wed 15:30  SSE 26/ 43  21.8 -1.5  1018.8    0.0   0.0   0.0   0.0   ----- 
Wed 16:00    S 24/ 39  21.6 -1.6  1018.8    0.0   0.0   0.0   0.0   ----- 
Wed 16:30    S 26/ 43  20.9 -1.6  1019.0    0.0   0.0   0.0   0.0   ----- 
Wed 17:00  SSE 24/ 37  20.0 -1.7  1019.2    0.0   0.0   0.0   0.0   ----- 
Wed 17:30    S 24/ 39  18.8 -2.2  1019.5    0.0   0.0   0.0   0.0   ----- 
Wed 18:00    S 20/ 35  17.9 -2.4  1019.9    0.0   0.0   0.0   0.0   ----- 
Wed 18:30    S 19/ 32  17.3 -2.4  1020.5    0.0   0.0   0.0   0.0   ----- 
Wed 19:00    S 15/ 24  16.7 -2.4  1020.9    0.0   0.0   0.0   0.0   ----- 
Wed 19:30    S 13/ 20  16.2 -2.8  1021.6    0.0   0.0   0.0   0.0   ----- 
Wed 20:00    S 11/ 17  15.4 -2.5  1022.0    0.0   0.0   0.0   0.0   ----- 
Wed 20:30    S 13/ 19  15.0 -2.4  1022.6    0.0   0.0   0.0   0.0   ----- 

RABBIT FLAT

Site: 015666
Alt: 340.0m
296km NW of YUENDUMU


  Time     Wind        Temp  DP   Baro     Rain since   Rain past  Vis(m), Cloud(base in m), Weather
  local        km/h                         9am  last   hr   10m    
Wed 15:30    E  9/ 33  34.0 -1.9  1011.1    0.0   0.0   0.0   0.0   ----- 
Wed 16:00  ESE 15/ 32  34.5 -1.5  1010.8    0.0   0.0   0.0   0.0   ----- 
Wed 16:30    E 13/ 28  34.7 -1.4  1010.8    0.0   0.0   0.0   0.0   ----- 
Wed 17:00  SSE 13/ 24  34.1 -1.8  1010.9    0.0   0.0   0.0   0.0   ----- 
Wed 17:30  ESE 15/ 24  34.1 -1.8  1011.1    0.0   0.0   0.0   0.0   ----- 
Wed 18:00   SE 15/ 28  33.2 -1.2  1011.3    0.0   0.0   0.0   0.0   ----- 
Wed 18:30   SE 17/ 24  32.1 -2.0  1011.6    0.0   0.0   0.0   0.0   ----- 
Wed 19:00   SE 15/ 20  30.4 -2.2  1012.0    0.0   0.0   0.0   0.0   ----- 
Wed 19:30  SSE 11/ 13  27.9 -2.0  1012.8    0.0   0.0   0.0   0.0   ----- 
Wed 20:00  SSE 13/ 15  27.9 -1.1  1013.2    0.0   0.0   0.0   0.0   ----- 
Wed 20:30    S 13/ 19  27.3 -1.6  1013.6    0.0   0.0   0.0   0.0   ----- 

TENNANT CREEK AIRPORT

Site: 015135
Alt: 375.7m
1km NW of TENNANT CREEK


  Time     Wind        Temp  DP   Baro     Rain since   Rain past  Vis(m), Cloud(base in m), Weather
  local        km/h                         9am  last   hr   10m    
Wed 15:30   SE 19/ 28  31.5 -1.3  1013.2    0.0   0.0   0.0   0.0   10000 
Wed 16:00  ESE 22/ 26  31.9 -1.0  1013.0    0.0   0.0   0.0   0.0   10000 
Wed 16:30  ESE 17/ 26  31.6 -1.2  1012.8    0.0   0.0   0.0   0.0   10000 
Wed 17:00  ESE 19/ 26  31.5 -1.3  1013.0    0.0   0.0   0.0   0.0   10000 
Wed 17:30  ESE 19/ 26  31.2 -0.5  1013.2    0.0   0.0   0.0   0.0   10000 
Wed 18:00  ESE 19/ 26  30.5 -1.0  1013.4    0.0   0.0   0.0   0.0   10000 
Wed 18:30  ESE 15/ 20  29.5 -0.8  1013.9    0.0   0.0   0.0   0.0   10000 
Wed 19:00  ESE 15/ 19  28.5 -0.6  1014.2    0.0   0.0   0.0   0.0   10000 
Wed 19:30  ESE 17/ 20  27.5 -0.5  1014.5    0.0   0.0   0.0   0.0   10000 
Wed 20:00  ESE 19/ 26  26.8 -0.3  1015.0    0.0   0.0   0.0   0.0   10000 
Wed 20:30  ESE 19/ 26  26.2  0.0  1015.5    0.0   0.0   0.0   0.0   10000 

TERRITORY GRAPE FARM

Site: 015643
Alt: 565.6m
141km N of ALICE SPRINGS


  Time     Wind        Temp  DP   Baro     Rain since   Rain past  Vis(m), Cloud(base in m), Weather
  local        km/h                         9am  last   hr   10m    
Wed 15:30   SE 24/ 37  24.3  0.6  1017.3    0.0   0.0   0.0   0.0   ----- 
Wed 16:00   SE 17/ 26  24.1  0.4  1017.3    0.0   0.0   0.0   0.0   ----- 
Wed 16:30   SE 20/ 35  23.9  0.9  1017.3    0.0   0.0   0.0   0.0   ----- 
Wed 17:00   SE 22/ 32  23.4  1.7  1017.5    0.0   0.0   0.0   0.0   ----- 
Wed 17:30  SSE 20/ 30  21.7  1.9  1018.0    0.0   0.0   0.0   0.0   ----- 
Wed 18:00   SE 22/ 30  21.2  2.0  1018.3    0.0   0.0   0.0   0.0   ----- 
Wed 18:30   SE 22/ 28  20.1  1.5  1018.8    0.0   0.0   0.0   0.0   ----- 
Wed 19:00  SSE 20/ 30  18.9  1.4  1019.3    0.0   0.0   0.0   0.0   ----- 
Wed 19:30  SSE 19/ 28  17.7  1.7  1019.8    0.0   0.0   0.0   0.0   ----- 
Wed 20:00  SSE 19/ 26  16.7  1.2  1020.6    0.0   0.0   0.0   0.0   ----- 
Wed 20:30  SSE 19/ 28  16.3  0.8  1021.0    0.0   0.0   0.0   0.0   ----- 

WALUNGURRU AIRPORT

Site: 015664
Alt: 454.3m
272km WSW of YUENDUMU


  Time     Wind        Temp  DP   Baro     Rain since   Rain past  Vis(m), Cloud(base in m), Weather
  local        km/h                         9am  last   hr   10m    
Wed 15:30   SE 26/ 35  21.6 -0.4  1017.5    0.0   0.0   0.0   0.0   ----- 
Wed 16:00   SE 26/ 35  21.4  0.0  1017.4    0.0   0.0   0.0   0.0   ----- 
Wed 16:30  SSE 28/ 37  21.7 -0.3  1017.5    0.0   0.0   0.0   0.0   ----- 
Wed 17:00   SE 26/ 33  23.4 -0.1  1017.4    0.0   0.0   0.0   0.0   ----- 
Wed 17:30   SE 24/ 35  23.0 -1.1  1017.3    0.0   0.0   0.0   0.0   ----- 
Wed 18:00   SE 28/ 39  22.6 -0.8  1017.4    0.0   0.0   0.0   0.0   ----- 
Wed 18:30   SE 24/ 35  22.0 -0.7  1017.7    0.0   0.0   0.0   0.0   ----- 
Wed 19:00   SE 24/ 33  21.3 -0.6  1017.9    0.0   0.0   0.0   0.0   ----- 
Wed 19:30   SE 22/ 28  20.9 -1.0  1018.3    0.0   0.0   0.0   0.0   ----- 
Wed 20:00   SE 26/ 32  20.8 -1.1  1018.6    0.0   0.0   0.0   0.0   ----- 
Wed 20:30   SE 24/ 37  20.5 -1.3  1019.0    0.0   0.0   0.0   0.0   ----- 

YULARA AIRPORT

Site: 015635
Alt: 492.0m
7km N of YULARA


  Time     Wind        Temp  DP   Baro     Rain since   Rain past  Vis(m), Cloud(base in m), Weather
  local        km/h                         9am  last   hr   10m    
Wed 15:30   SE 20/ 30  21.8 -7.8  1019.7    0.0   0.0   0.0   0.0   10000 
Wed 16:00  SSE 19/ 24  22.9 -8.0  1019.5    0.0   0.0   0.0   0.0   10000 
Wed 16:30   SE 17/ 26  22.9 -9.1  1019.4    0.0   0.0   0.0   0.0   10000 
Wed 17:00   SE 13/ 37  22.9-13.1  1019.6    0.0   0.0   0.0   0.0   10000 
Wed 17:30    E 20/ 30  22.9-13.1  1019.7    0.0   0.0   0.0   0.0   10000 
Wed 18:00   SE 17/ 26  22.3-13.5  1019.9    0.0   0.0   0.0   0.0   10000 
Wed 18:30  ESE 15/ 20  21.5-14.1  1020.0    0.0   0.0   0.0   0.0   10000 
Wed 19:00  ESE 11/ 17  20.1-15.1  1020.5    0.0   0.0   0.0   0.0   10000 
Wed 19:30  ESE 13/ 15  18.9-14.6  1020.9    0.0   0.0   0.0   0.0   10000 
Wed 20:00  ESE 11/ 13  17.4-14.5  1021.4    0.0   0.0   0.0   0.0   10000 
Wed 20:30  SSE 11/ 15  15.4-13.8  1021.9    0.0   0.0   0.0   0.0   10000